createdAt,value
2019-01-23T00:00:59.722Z,96.80
2019-01-23T00:03:27.914Z,96.80
2019-01-23T00:05:55.905Z,96.80
2019-01-23T00:08:23.542Z,96.70
2019-01-23T00:10:51.535Z,97.00
2019-01-23T00:13:19.555Z,97.00
2019-01-23T00:15:47.162Z,97.20
2019-01-23T00:18:14.714Z,96.90
2019-01-23T00:20:42.382Z,97.10
2019-01-23T00:23:10.358Z,97.10
2019-01-23T00:25:38.691Z,97.20
2019-01-23T00:28:07.515Z,97.60
2019-01-23T00:30:35.315Z,97.50
2019-01-23T00:33:03.390Z,97.60
2019-01-23T00:35:31.048Z,98.10
2019-01-23T00:37:59.055Z,97.70
2019-01-23T00:40:26.651Z,98.30
2019-01-23T00:42:54.341Z,98.30
2019-01-23T00:45:22.582Z,98.30
2019-01-23T00:47:50.190Z,98.00
2019-01-23T00:50:17.727Z,97.80
2019-01-23T00:52:45.259Z,97.70
2019-01-23T00:55:13.550Z,97.60
2019-01-23T00:57:41.502Z,97.50
2019-01-23T01:00:13.729Z,97.30
2019-01-23T01:02:41.634Z,97.00
2019-01-23T01:05:09.523Z,96.10
2019-01-23T01:07:37.162Z,96.50
2019-01-23T01:10:07.482Z,96.50
2019-01-23T01:12:35.360Z,96.20
2019-01-23T01:15:03.198Z,96.20
2019-01-23T01:17:31.114Z,96.40
2019-01-23T01:19:59.262Z,96.30
2019-01-23T01:22:27.132Z,95.90
2019-01-23T01:24:55.282Z,95.60
2019-01-23T01:27:23.166Z,95.90
2019-01-23T01:29:51.128Z,95.60
2019-01-23T01:32:19.139Z,95.30
2019-01-23T01:34:47.047Z,96.00
2019-01-23T01:37:14.638Z,95.90
2019-01-23T01:39:42.750Z,96.00
2019-01-23T01:42:10.443Z,95.70
2019-01-23T01:44:38.029Z,95.30
2019-01-23T01:47:05.582Z,96.00
2019-01-23T01:49:34.135Z,96.20
2019-01-23T01:52:01.690Z,96.50
2019-01-23T01:54:29.630Z,96.10
2019-01-23T01:56:57.565Z,96.30
2019-01-23T01:59:25.289Z,96.10
2019-01-23T02:01:52.882Z,95.90
2019-01-23T02:04:21.085Z,95.80
2019-01-23T02:06:49.316Z,95.50
2019-01-23T02:09:17.311Z,96.30
2019-01-23T02:11:45.022Z,96.30
2019-01-23T02:14:12.728Z,96.30
2019-01-23T02:16:40.664Z,96.40
2019-01-23T02:19:08.567Z,96.20
2019-01-23T02:21:36.201Z,95.90
2019-01-23T02:24:03.791Z,95.80
2019-01-23T02:26:31.859Z,96.00
2019-01-23T02:29:00.350Z,96.20
2019-01-23T02:31:28.015Z,96.10
2019-01-23T02:33:56.078Z,95.60
2019-01-23T02:36:24.017Z,95.30
2019-01-23T02:38:51.936Z,95.90
2019-01-23T02:41:19.667Z,95.90
2019-01-23T02:43:47.866Z,95.70
2019-01-23T02:46:15.612Z,96.00
2019-01-23T02:48:43.247Z,95.60
2019-01-23T02:51:11.135Z,95.70
2019-01-23T02:53:39.379Z,95.80
2019-01-23T02:56:07.086Z,95.70
2019-01-23T02:58:34.733Z,95.80
2019-01-23T03:01:02.722Z,95.80
2019-01-23T03:03:30.984Z,95.60
2019-01-23T03:05:58.715Z,95.50
2019-01-23T03:08:26.607Z,95.60
2019-01-23T03:10:54.567Z,95.10
2019-01-23T03:13:22.586Z,95.60
2019-01-23T03:15:50.516Z,95.30
2019-01-23T03:18:18.174Z,95.50
2019-01-23T03:20:46.219Z,95.50
2019-01-23T03:23:14.134Z,95.20
2019-01-23T03:25:42.180Z,95.30
2019-01-23T03:28:10.155Z,95.70
2019-01-23T03:30:37.817Z,95.80
2019-01-23T03:33:05.396Z,95.70
2019-01-23T03:35:33.037Z,95.30
2019-01-23T03:38:01.410Z,95.70
2019-01-23T03:40:29.056Z,95.70
2019-01-23T03:42:56.712Z,95.60
2019-01-23T03:45:24.393Z,95.40
2019-01-23T03:47:52.278Z,95.30
2019-01-23T03:50:20.355Z,95.50
2019-01-23T03:52:47.948Z,94.90
2019-01-23T03:55:16.260Z,95.50
2019-01-23T03:57:43.943Z,95.30
2019-01-23T04:00:16.646Z,95.90
2019-01-23T04:02:44.211Z,96.00
2019-01-23T04:05:12.548Z,96.00
2019-01-23T04:07:40.369Z,95.50
2019-01-23T04:10:10.544Z,96.10
2019-01-23T04:12:38.810Z,95.70
2019-01-23T04:15:07.354Z,95.20
2019-01-23T04:17:35.583Z,95.80
2019-01-23T04:20:05.622Z,96.00
2019-01-23T04:22:33.280Z,96.20
2019-01-23T04:25:00.883Z,96.10
2019-01-23T04:27:28.591Z,96.00
2019-01-23T04:29:56.837Z,96.50
2019-01-23T04:32:25.205Z,96.60
2019-01-23T04:34:53.179Z,96.40
2019-01-23T04:37:20.776Z,96.30
2019-01-23T04:39:48.412Z,95.80
2019-01-23T04:42:16.306Z,96.20
2019-01-23T04:44:44.193Z,96.10
2019-01-23T04:47:12.452Z,96.50
2019-01-23T04:49:40.376Z,96.50
2019-01-23T04:52:13.151Z,96.90
2019-01-23T04:54:40.899Z,96.80
2019-01-23T04:57:08.590Z,97.00
2019-01-23T04:59:36.254Z,96.80
2019-01-23T05:02:03.854Z,97.00
2019-01-23T05:04:31.845Z,96.90
2019-01-23T05:06:59.845Z,96.40
2019-01-23T05:09:27.535Z,96.00
2019-01-23T05:11:56.813Z,96.70
2019-01-23T05:14:24.875Z,97.00
2019-01-23T05:16:52.539Z,96.90
2019-01-23T05:19:20.450Z,96.70
2019-01-23T05:21:48.436Z,96.70
2019-01-23T05:24:16.438Z,96.30
2019-01-23T05:26:45.038Z,96.90
2019-01-23T05:29:12.667Z,97.30
2019-01-23T05:31:40.433Z,97.10
2019-01-23T05:34:08.048Z,97.40
2019-01-23T05:36:35.646Z,97.20
2019-01-23T05:39:06.585Z,96.70
2019-01-23T05:41:34.793Z,96.10
2019-01-23T05:44:02.671Z,96.30
2019-01-23T05:46:30.629Z,96.00
2019-01-23T05:48:58.279Z,96.30
2019-01-23T05:51:25.787Z,95.80
2019-01-23T05:53:53.726Z,96.10
2019-01-23T05:56:21.302Z,96.00
2019-01-23T05:58:49.159Z,95.60
2019-01-23T06:01:17.235Z,94.90
2019-01-23T06:03:45.251Z,95.50
2019-01-23T06:06:13.134Z,95.20
2019-01-23T06:08:41.127Z,94.90
2019-01-23T06:11:09.086Z,94.90
2019-01-23T06:13:36.746Z,94.60
2019-01-23T06:16:04.429Z,95.20
2019-01-23T06:18:32.167Z,95.20
2019-01-23T06:21:00.139Z,95.20
2019-01-23T06:23:28.386Z,94.80
2019-01-23T06:25:56.291Z,94.90
2019-01-23T06:28:24.074Z,95.70
2019-01-23T06:30:52.728Z,95.90
2019-01-23T06:33:20.874Z,95.90
2019-01-23T06:35:48.514Z,95.70
2019-01-23T06:38:16.030Z,95.90
2019-01-23T06:40:43.941Z,95.30
2019-01-23T06:43:11.979Z,95.80
2019-01-23T06:45:39.622Z,95.30
2019-01-23T06:48:07.244Z,96.00
2019-01-23T06:50:35.150Z,95.80
2019-01-23T06:53:02.708Z,95.70
2019-01-23T06:55:31.186Z,95.50
2019-01-23T06:57:59.042Z,95.60
2019-01-23T07:00:26.964Z,95.80
2019-01-23T07:02:54.647Z,95.60
2019-01-23T07:05:22.942Z,95.30
2019-01-23T07:07:51.439Z,95.50
2019-01-23T07:10:21.176Z,95.20
2019-01-23T07:12:48.750Z,95.10
2019-01-23T07:15:16.328Z,95.20
2019-01-23T07:17:44.242Z,95.20
2019-01-23T07:20:15.113Z,95.30
2019-01-23T07:22:43.362Z,95.20
2019-01-23T07:25:11.002Z,94.60
2019-01-23T07:27:38.530Z,94.30
2019-01-23T07:30:10.839Z,94.30
2019-01-23T07:32:38.571Z,94.60
2019-01-23T07:35:06.280Z,95.10
2019-01-23T07:37:34.258Z,95.10
2019-01-23T07:40:01.992Z,95.20
2019-01-23T07:42:29.610Z,94.30
2019-01-23T07:44:57.800Z,94.60
2019-01-23T07:47:26.183Z,93.80
2019-01-23T07:49:53.840Z,94.40
2019-01-23T07:52:21.958Z,93.80
2019-01-23T07:54:50.214Z,94.00
2019-01-23T07:57:18.225Z,93.80
2019-01-23T07:59:46.564Z,93.40
2019-01-23T08:02:14.225Z,93.00
2019-01-23T08:04:42.054Z,92.60
2019-01-23T08:07:09.854Z,92.20
2019-01-23T08:09:38.408Z,92.20
2019-01-23T08:12:10.653Z,92.10
2019-01-23T08:14:35.826Z,91.60
2019-01-23T08:17:04.115Z,90.30
2019-01-23T08:19:32.863Z,86.30
2019-01-23T08:22:01.448Z,84.50
2019-01-23T08:24:29.126Z,79.50
2019-01-23T08:26:56.720Z,77.80
2019-01-23T08:29:25.029Z,77.60
2019-01-23T08:31:53.086Z,77.00
2019-01-23T08:34:20.786Z,74.40
2019-01-23T08:36:48.791Z,71.80
2019-01-23T08:39:16.528Z,70.50
2019-01-23T08:41:44.127Z,70.20
2019-01-23T08:44:11.780Z,69.20
2019-01-23T08:46:39.727Z,69.70
2019-01-23T08:49:08.292Z,70.80
2019-01-23T08:51:36.168Z,69.20
2019-01-23T08:54:04.307Z,69.10
2019-01-23T08:56:32.218Z,67.70
2019-01-23T08:58:59.866Z,65.60
2019-01-23T09:01:28.252Z,65.10
2019-01-23T09:03:56.134Z,64.90
2019-01-23T09:06:23.986Z,64.00
2019-01-23T09:08:51.999Z,66.50
2019-01-23T09:11:19.836Z,69.40
2019-01-23T09:13:47.572Z,73.00
2019-01-23T09:16:15.462Z,74.90
2019-01-23T09:18:43.494Z,77.10
2019-01-23T09:21:11.194Z,78.30
2019-01-23T09:23:38.713Z,77.90
2019-01-23T09:26:06.697Z,78.30
2019-01-23T09:28:34.327Z,79.00
2019-01-23T09:31:24.348Z,78.60
2019-01-23T09:34:01.839Z,77.70
2019-01-23T09:37:01.966Z,78.80
2019-01-23T09:40:08.322Z,78.30
2019-01-23T09:43:19.709Z,77.80
2019-01-23T09:46:19.423Z,76.80
2019-01-23T09:49:09.990Z,77.10
2019-01-23T09:52:25.475Z,78.70
2019-01-23T09:54:53.454Z,79.60
2019-01-23T09:57:21.356Z,80.30
2019-01-23T09:59:49.019Z,80.60
2019-01-23T10:02:16.595Z,81.10
2019-01-23T10:04:45.142Z,81.20
2019-01-23T10:07:13.039Z,80.80
2019-01-23T10:09:41.337Z,81.20
2019-01-23T10:12:09.029Z,82.30
2019-01-23T10:14:37.020Z,82.50
2019-01-23T10:17:05.121Z,82.30
2019-01-23T10:19:32.779Z,82.10
2019-01-23T10:22:00.758Z,83.30
2019-01-23T10:24:28.371Z,82.80
2019-01-23T10:26:56.344Z,84.20
2019-01-23T10:29:24.306Z,84.00
2019-01-23T10:31:52.065Z,84.90
2019-01-23T10:34:20.054Z,83.70
2019-01-23T10:36:48.383Z,83.80
2019-01-23T10:39:17.530Z,84.70
2019-01-23T10:41:45.713Z,85.60
2019-01-23T10:44:13.879Z,84.70
2019-01-23T10:46:42.186Z,84.70
2019-01-23T10:49:10.979Z,82.70
2019-01-23T10:51:39.046Z,83.10
2019-01-23T10:54:09.966Z,82.30
2019-01-23T10:56:38.743Z,80.30
2019-01-23T10:59:06.778Z,80.30
2019-01-23T11:01:34.766Z,81.10
2019-01-23T11:04:02.322Z,80.30
2019-01-23T11:06:30.401Z,81.50
2019-01-23T11:08:58.852Z,80.80
2019-01-23T11:11:27.935Z,79.10
2019-01-23T11:13:55.534Z,79.10
2019-01-23T11:16:23.516Z,79.90
2019-01-23T11:18:51.283Z,79.50
2019-01-23T11:21:19.258Z,80.50
2019-01-23T11:23:47.507Z,80.10
2019-01-23T11:26:15.712Z,79.10
2019-01-23T11:28:47.314Z,78.90
2019-01-23T11:31:20.353Z,78.30
2019-01-23T11:33:44.637Z,77.70
2019-01-23T11:36:12.330Z,77.80
2019-01-23T11:38:40.418Z,79.30
2019-01-23T11:41:08.113Z,78.60
2019-01-23T11:43:35.766Z,78.20
2019-01-23T11:46:03.609Z,78.00
2019-01-23T11:48:31.632Z,77.70
2019-01-23T11:50:59.366Z,77.60
2019-01-23T11:53:26.938Z,77.90
2019-01-23T11:55:54.999Z,79.10
2019-01-23T11:58:22.584Z,78.50
2019-01-23T12:00:53.412Z,78.50
2019-01-23T12:03:21.587Z,78.20
2019-01-23T12:05:49.219Z,78.90
2019-01-23T12:08:19.086Z,77.90
2019-01-23T12:10:47.722Z,77.00
2019-01-23T12:13:15.506Z,77.00
2019-01-23T12:15:43.973Z,78.20
2019-01-23T12:18:11.944Z,77.80
2019-01-23T12:20:42.026Z,78.20
2019-01-23T12:23:10.031Z,77.20
2019-01-23T12:25:37.907Z,78.80
2019-01-23T12:28:06.453Z,78.10
2019-01-23T12:30:35.579Z,78.30
2019-01-23T12:33:03.924Z,77.70
2019-01-23T12:35:32.027Z,78.50
2019-01-23T12:38:00.439Z,78.10
2019-01-23T12:40:28.545Z,77.00
2019-01-23T12:42:56.359Z,78.30
2019-01-23T12:45:26.258Z,79.50
2019-01-23T12:47:54.107Z,79.50
2019-01-23T12:50:24.195Z,80.20
2019-01-23T12:52:52.286Z,79.20
2019-01-23T12:55:19.960Z,81.40
2019-01-23T12:57:47.612Z,81.10
2019-01-23T13:00:19.905Z,82.40
2019-01-23T13:02:48.182Z,81.10
2019-01-23T13:05:17.735Z,80.40
2019-01-23T13:07:45.957Z,79.00
2019-01-23T13:10:15.783Z,79.00
2019-01-23T13:12:44.036Z,79.50
2019-01-23T13:15:13.746Z,78.90
2019-01-23T13:17:41.452Z,78.90
2019-01-23T13:20:11.826Z,78.70
2019-01-23T13:22:39.570Z,78.90
2019-01-23T13:25:10.537Z,79.60
2019-01-23T13:27:38.183Z,79.10
2019-01-23T13:30:09.002Z,80.50
2019-01-23T13:32:36.719Z,80.20
2019-01-23T13:35:05.819Z,79.90
2019-01-23T13:37:33.891Z,79.00
2019-01-23T13:40:01.626Z,79.10
2019-01-23T13:42:29.517Z,79.50
2019-01-23T13:44:57.560Z,79.00
2019-01-23T13:47:25.416Z,80.00
2019-01-23T13:49:53.311Z,78.90
2019-01-23T13:52:21.750Z,80.10
2019-01-23T13:54:49.453Z,79.40
2019-01-23T13:57:17.675Z,80.30
2019-01-23T13:59:45.623Z,81.30
2019-01-23T14:02:13.733Z,81.40
2019-01-23T14:04:41.415Z,81.40
2019-01-23T14:07:09.488Z,82.80
2019-01-23T14:09:37.568Z,82.80
2019-01-23T14:12:05.742Z,82.00
2019-01-23T14:14:33.301Z,82.60
2019-01-23T14:17:01.298Z,81.80
2019-01-23T14:19:29.354Z,82.70
2019-01-23T14:21:57.866Z,81.90
2019-01-23T14:24:25.846Z,83.60
2019-01-23T14:26:53.719Z,83.40
2019-01-23T14:29:21.332Z,82.50
2019-01-23T14:31:49.302Z,82.90
2019-01-23T14:34:17.007Z,84.20
2019-01-23T14:36:44.716Z,83.90
2019-01-23T14:39:13.054Z,84.90
2019-01-23T14:41:41.018Z,84.40
2019-01-23T14:44:09.163Z,83.30
2019-01-23T14:46:37.701Z,83.80
2019-01-23T14:49:05.350Z,84.70
2019-01-23T14:51:33.342Z,85.10
2019-01-23T14:54:01.231Z,85.20
2019-01-23T14:56:29.003Z,85.60
2019-01-23T14:58:56.726Z,86.60
2019-01-23T15:01:24.387Z,87.30
2019-01-23T15:03:52.252Z,88.00
2019-01-23T15:06:20.230Z,89.00
2019-01-23T15:08:48.386Z,87.20
2019-01-23T15:11:16.071Z,88.80
2019-01-23T15:13:44.035Z,89.00
2019-01-23T15:16:12.050Z,89.30
2019-01-23T15:18:40.373Z,89.10
2019-01-23T15:21:08.259Z,89.20
2019-01-23T15:23:38.462Z,88.60
2019-01-23T15:26:06.135Z,89.60
2019-01-23T15:28:34.320Z,88.80
2019-01-23T15:31:02.464Z,90.50
2019-01-23T15:33:30.196Z,90.00
2019-01-23T15:35:58.176Z,90.60
2019-01-23T15:38:26.494Z,90.30
2019-01-23T15:40:56.796Z,90.30
2019-01-23T15:43:28.842Z,90.50
2019-01-23T15:45:59.556Z,90.20
2019-01-23T15:48:27.599Z,90.60
2019-01-23T15:50:56.408Z,90.60
2019-01-23T15:53:24.351Z,90.00
2019-01-23T15:55:52.358Z,90.00
2019-01-23T15:58:20.357Z,90.80
2019-01-23T16:00:48.258Z,90.40
2019-01-23T16:03:16.194Z,91.10
2019-01-23T16:05:43.894Z,90.90
2019-01-23T16:08:11.793Z,90.50
2019-01-23T16:10:39.807Z,91.20
2019-01-23T16:13:07.787Z,91.20
2019-01-23T16:15:35.544Z,90.80
2019-01-23T16:18:03.686Z,91.80
2019-01-23T16:20:31.666Z,91.80
2019-01-23T16:22:59.708Z,92.00
2019-01-23T16:25:27.295Z,91.80
2019-01-23T16:27:55.272Z,91.50
2019-01-23T16:30:28.558Z,91.20
2019-01-23T16:32:56.633Z,91.50
2019-01-23T16:35:24.276Z,91.90
2019-01-23T16:37:52.979Z,91.80
2019-01-23T16:40:20.987Z,91.60
2019-01-23T16:42:49.178Z,91.20
2019-01-23T16:45:17.744Z,91.70
2019-01-23T16:47:45.720Z,92.10
2019-01-23T16:50:16.197Z,92.50
2019-01-23T16:52:44.210Z,91.90
2019-01-23T16:55:12.647Z,91.90
2019-01-23T16:57:40.805Z,91.80
2019-01-23T17:00:10.325Z,91.70
2019-01-23T17:02:38.764Z,92.00
2019-01-23T17:05:09.918Z,91.60
2019-01-23T17:07:38.047Z,91.60
2019-01-23T17:10:09.258Z,91.60
2019-01-23T17:12:36.797Z,91.60
2019-01-23T17:15:05.755Z,91.70
2019-01-23T17:17:33.482Z,91.80
2019-01-23T17:20:01.245Z,91.90
2019-01-23T17:22:30.546Z,92.60
2019-01-23T17:24:58.910Z,92.90
2019-01-23T17:27:26.599Z,92.70
2019-01-23T17:29:55.005Z,92.20
2019-01-23T17:32:23.490Z,91.90
2019-01-23T17:34:51.406Z,92.60
2019-01-23T17:37:19.483Z,92.50
2019-01-23T17:39:47.705Z,93.10
2019-01-23T17:42:15.439Z,92.30
2019-01-23T17:44:43.071Z,91.80
2019-01-23T17:47:10.948Z,92.50
2019-01-23T17:49:39.017Z,92.40
2019-01-23T17:52:06.769Z,92.20
2019-01-23T17:54:34.952Z,92.10
2019-01-23T17:57:02.732Z,92.30
2019-01-23T17:59:31.302Z,92.50
2019-01-23T18:01:59.380Z,92.90
2019-01-23T18:04:27.055Z,92.40
2019-01-23T18:06:54.713Z,92.10
2019-01-23T18:09:23.000Z,92.40
2019-01-23T18:11:51.346Z,92.20
2019-01-23T18:14:20.034Z,93.10
2019-01-23T18:16:48.471Z,92.20
2019-01-23T18:19:16.551Z,92.00
2019-01-23T18:21:45.020Z,91.80
2019-01-23T18:24:13.165Z,91.80
2019-01-23T18:26:41.278Z,91.90
2019-01-23T18:29:09.400Z,91.60
2019-01-23T18:31:49.742Z,91.90
2019-01-23T18:35:01.942Z,91.90
2019-01-23T18:37:45.870Z,92.00
2019-01-23T18:40:48.628Z,91.80
2019-01-23T18:43:40.915Z,91.20
2019-01-23T18:46:59.474Z,91.00
2019-01-23T18:50:13.511Z,91.30
2019-01-23T18:52:41.483Z,91.70
2019-01-23T18:55:10.576Z,91.40
2019-01-23T18:57:38.438Z,90.80
2019-01-23T19:00:09.286Z,91.30
2019-01-23T19:02:36.915Z,91.30
2019-01-23T19:05:06.958Z,91.60
2019-01-23T19:07:34.930Z,91.20
2019-01-23T19:10:03.233Z,91.20
2019-01-23T19:12:31.275Z,91.20
2019-01-23T19:14:59.710Z,91.40
2019-01-23T19:17:28.114Z,91.50
2019-01-23T19:19:56.174Z,91.70
2019-01-23T19:22:23.850Z,91.40
2019-01-23T19:24:51.748Z,90.80
2019-01-23T19:27:20.078Z,91.40
2019-01-23T19:29:48.143Z,91.70
2019-01-23T19:32:16.234Z,97.30
2019-01-23T19:34:44.262Z,99.20
2019-01-23T19:37:11.994Z,95.50
2019-01-23T19:39:39.695Z,92.80
2019-01-23T19:42:07.370Z,91.60
2019-01-23T19:44:35.375Z,91.20
2019-01-23T19:47:03.271Z,90.60
2019-01-23T19:49:31.349Z,91.20
2019-01-23T19:51:59.309Z,92.00
2019-01-23T19:54:27.559Z,91.90
2019-01-23T19:56:55.338Z,91.50
2019-01-23T19:59:23.052Z,91.80
2019-01-23T20:01:51.225Z,92.10
2019-01-23T20:04:19.295Z,91.40
2019-01-23T20:06:47.203Z,91.70
2019-01-23T20:09:15.722Z,91.40
2019-01-23T20:11:43.558Z,91.30
2019-01-23T20:14:11.660Z,91.70
2019-01-23T20:16:40.466Z,91.60
2019-01-23T20:19:11.544Z,91.00
2019-01-23T20:21:39.603Z,91.80
2019-01-23T20:24:07.970Z,91.80
2019-01-23T20:26:35.979Z,91.90
2019-01-23T20:29:03.990Z,92.00
2019-01-23T20:31:32.046Z,92.30
2019-01-23T20:34:00.498Z,92.30
2019-01-23T20:36:28.432Z,91.60
2019-01-23T20:38:56.365Z,91.80
2019-01-23T20:41:26.593Z,92.30
2019-01-23T20:43:54.311Z,92.30
2019-01-23T20:46:23.149Z,92.20
2019-01-23T20:48:51.289Z,92.30
2019-01-23T20:51:19.211Z,92.30
2019-01-23T20:53:46.702Z,92.00
2019-01-23T20:56:14.951Z,92.30
2019-01-23T20:58:43.219Z,91.80
2019-01-23T21:01:11.375Z,91.90
2019-01-23T21:03:38.874Z,92.00
2019-01-23T21:06:06.539Z,92.10
2019-01-23T21:08:34.505Z,92.00
2019-01-23T21:11:02.144Z,91.90
2019-01-23T21:13:30.136Z,91.80
2019-01-23T21:15:57.723Z,91.90
2019-01-23T21:18:25.557Z,91.70
2019-01-23T21:20:53.306Z,91.50
2019-01-23T21:23:20.984Z,91.70
2019-01-23T21:25:48.932Z,91.50
2019-01-23T21:28:16.596Z,90.90
2019-01-23T21:30:44.250Z,90.60
2019-01-23T21:33:11.969Z,90.80
2019-01-23T21:35:39.626Z,91.40
2019-01-23T21:38:07.474Z,91.30
2019-01-23T21:40:35.230Z,91.00
2019-01-23T21:43:03.126Z,91.10
2019-01-23T21:45:35.762Z,91.10
2019-01-23T21:48:04.383Z,91.10
2019-01-23T21:50:33.467Z,91.10
2019-01-23T21:53:01.223Z,90.90
2019-01-23T21:55:29.292Z,90.80
2019-01-23T21:57:57.186Z,91.30
2019-01-23T22:00:33.870Z,91.00
2019-01-23T22:03:01.755Z,91.00
2019-01-23T22:05:29.386Z,91.40
2019-01-23T22:07:57.337Z,91.40
2019-01-23T22:10:25.335Z,90.80
2019-01-23T22:12:53.518Z,90.90
2019-01-23T22:15:22.351Z,91.00
2019-01-23T22:17:50.322Z,91.00
2019-01-23T22:20:18.494Z,90.80
2019-01-23T22:22:46.255Z,91.50
2019-01-23T22:25:15.524Z,91.70
2019-01-23T22:27:43.427Z,91.50
2019-01-23T22:30:14.010Z,91.50
2019-01-23T22:32:41.818Z,91.80
2019-01-23T22:35:09.603Z,91.60
2019-01-23T22:37:38.072Z,91.10
2019-01-23T22:40:06.559Z,91.70
2019-01-23T22:42:34.833Z,91.70
2019-01-23T22:45:02.346Z,91.70
2019-01-23T22:47:30.162Z,91.90
2019-01-23T22:49:57.987Z,91.90
2019-01-23T22:52:25.790Z,91.80
2019-01-23T22:54:53.409Z,92.30
2019-01-23T22:57:20.992Z,91.80
2019-01-23T22:59:48.782Z,92.40
2019-01-23T23:02:16.398Z,92.40
2019-01-23T23:04:45.049Z,92.60
2019-01-23T23:07:13.006Z,92.40
2019-01-23T23:09:40.739Z,92.50
2019-01-23T23:12:08.429Z,92.50
2019-01-23T23:14:36.789Z,92.20
2019-01-23T23:17:05.259Z,92.50
2019-01-23T23:19:33.954Z,92.10
2019-01-23T23:22:01.827Z,91.90
2019-01-23T23:24:30.067Z,92.00
2019-01-23T23:26:58.033Z,92.10
2019-01-23T23:29:25.621Z,92.40
2019-01-23T23:31:53.289Z,92.50
2019-01-23T23:34:21.504Z,92.40
2019-01-23T23:36:49.995Z,92.20
2019-01-23T23:39:17.547Z,92.20
2019-01-23T23:41:45.458Z,92.50
2019-01-23T23:44:13.119Z,92.50
2019-01-23T23:46:40.744Z,92.10
2019-01-23T23:49:08.753Z,92.40
2019-01-23T23:51:36.638Z,92.00
2019-01-23T23:54:04.637Z,91.90
2019-01-23T23:56:32.846Z,91.90
2019-01-23T23:59:00.761Z,91.60
